Time;durP1;ratioP1;P1;durP2;ratioP2;P2;SDS_P1;SDS_P2;PMS_P1;PMS_P2;Temp;Humidity;BMP_temperature;BMP_pressure;BME280_temperature;BME280_humidity;BME280_pressure;Samples;Min_cycle;Max_cycle;Signal;HPM_P1;HPM_P2
2023/12/04 00:01:09;;;;;;;22.23;9.85;;;0.50;99.90;;;;;;5077860;28;20119;-72
2023/12/04 00:03:35;;;;;;;16.67;8.20;;;0.50;99.90;;;;;;5094702;28;20039;-73
2023/12/04 00:06:01;;;;;;;27.10;14.52;;;0.40;99.90;;;;;;5094575;28;20043;-73
2023/12/04 00:08:26;;;;;;;14.77;7.32;;;0.40;99.90;;;;;;5060904;28;20042;-73
2023/12/04 00:10:54;;;;;;;26.80;13.93;;;0.50;99.90;;;;;;5094628;28;20089;-73
2023/12/04 00:13:19;;;;;;;21.08;10.93;;;0.40;99.90;;;;;;5094551;28;20506;-73
2023/12/04 00:15:45;;;;;;;23.70;10.60;;;0.50;99.90;;;;;;5077685;28;20040;-73
2023/12/04 00:18:11;;;;;;;32.20;17.20;;;0.40;99.90;;;;;;5077571;28;20079;-73
2023/12/04 00:20:37;;;;;;;26.55;13.05;;;0.50;99.90;;;;;;5094577;28;20487;-72
2023/12/04 00:23:03;;;;;;;22.35;11.63;;;0.50;99.90;;;;;;5077599;28;20047;-73
2023/12/04 00:25:28;;;;;;;18.17;9.45;;;0.50;99.90;;;;;;5078273;28;20043;-73
2023/12/04 00:27:54;;;;;;;20.38;9.77;;;0.50;99.90;;;;;;5081121;28;20552;-73
2023/12/04 00:30:20;;;;;;;28.05;13.77;;;0.50;99.90;;;;;;5081359;28;20058;-73
2023/12/04 00:32:45;;;;;;;17.80;8.73;;;0.50;99.90;;;;;;5097850;28;20078;-73
2023/12/04 00:35:11;;;;;;;17.27;7.90;;;0.50;99.90;;;;;;5097970;28;20517;-73
2023/12/04 00:37:38;;;;;;;19.13;9.10;;;0.50;99.90;;;;;;5097677;28;20184;-73
2023/12/04 00:40:05;;;;;;;19.27;9.05;;;0.50;99.90;;;;;;5081066;28;20043;-73
2023/12/04 00:42:31;;;;;;;24.08;9.50;;;0.40;99.90;;;;;;5097762;28;20039;-73
2023/12/04 00:44:57;;;;;;;20.95;10.73;;;0.50;99.90;;;;;;5097536;28;20050;-73
2023/12/04 00:47:22;;;;;;;19.17;8.90;;;0.40;99.90;;;;;;5081031;28;20058;-73
2023/12/04 00:49:48;;;;;;;19.05;8.93;;;0.50;99.90;;;;;;5098120;28;20047;-73
2023/12/04 00:52:14;;;;;;;22.17;9.35;;;0.40;99.90;;;;;;5097541;28;20098;-74
2023/12/04 00:54:40;;;;;;;27.42;11.82;;;0.40;99.90;;;;;;5097476;28;20089;-74
2023/12/04 00:57:06;;;;;;;20.73;9.82;;;0.40;99.90;;;;;;5097360;28;20542;-73
2023/12/04 00:59:32;;;;;;;21.88;11.05;;;0.50;99.90;;;;;;5097633;28;20127;-73
2023/12/04 01:01:58;;;;;;;35.47;17.80;;;0.50;99.90;;;;;;5063794;28;20039;-73
2023/12/04 01:04:23;;;;;;;22.35;10.07;;;0.50;99.90;;;;;;5097151;28;20487;-73
2023/12/04 01:06:49;;;;;;;19.00;8.50;;;0.50;99.90;;;;;;5097430;28;20514;-73
2023/12/04 01:09:15;;;;;;;19.15;9.38;;;0.50;99.90;;;;;;5097470;28;20165;-73
2023/12/04 01:11:41;;;;;;;27.42;14.57;;;0.50;99.90;;;;;;5080546;28;20035;-73
2023/12/04 01:14:07;;;;;;;19.42;9.07;;;0.60;99.90;;;;;;5097339;28;20035;-73
2023/12/04 01:16:33;;;;;;;18.10;8.85;;;0.50;99.90;;;;;;5080488;28;20039;-73
2023/12/04 01:18:59;;;;;;;18.50;8.15;;;0.50;99.90;;;;;;5096872;28;20047;-73
2023/12/04 01:21:24;;;;;;;22.00;11.00;;;0.50;99.90;;;;;;5097161;28;20542;-73
2023/12/04 01:23:50;;;;;;;26.30;13.68;;;0.50;99.90;;;;;;5097320;28;20043;-72
2023/12/04 01:26:16;;;;;;;21.00;8.68;;;0.50;99.90;;;;;;5096992;28;20046;-73
2023/12/04 01:28:41;;;;;;;25.38;12.20;;;0.50;99.90;;;;;;5080076;28;20043;-72
2023/12/04 01:31:07;;;;;;;30.88;14.50;;;0.50;99.90;;;;;;5096909;28;20070;-74
2023/12/04 01:33:33;;;;;;;13.27;6.82;;;0.50;99.90;;;;;;5096274;28;20075;-73
2023/12/04 01:35:58;;;;;;;19.77;9.93;;;0.60;99.90;;;;;;5096780;28;20036;-73
2023/12/04 01:38:24;;;;;;;21.50;8.50;;;0.50;99.90;;;;;;5078971;28;20040;-69
2023/12/04 01:40:50;;;;;;;21.92;9.25;;;0.50;99.90;;;;;;5096712;28;20035;-69
2023/12/04 01:43:16;;;;;;;17.38;7.32;;;0.50;99.90;;;;;;5096656;28;20048;-69
2023/12/04 01:45:42;;;;;;;17.77;7.35;;;0.80;99.90;;;;;;5096303;28;20042;-69
2023/12/04 01:48:08;;;;;;;17.15;8.35;;;0.50;99.90;;;;;;5079501;28;20038;-69
2023/12/04 01:50:35;;;;;;;15.77;7.38;;;0.60;99.90;;;;;;5096492;28;20065;-70
2023/12/04 01:53:01;;;;;;;16.15;6.93;;;0.60;99.90;;;;;;5081728;28;20078;-69
2023/12/04 01:55:29;;;;;;;18.45;8.95;;;0.50;99.90;;;;;;5076015;28;20051;-69
2023/12/04 01:57:56;;;;;;;16.67;7.75;;;0.60;99.90;;;;;;5076070;28;20046;-69
2023/12/04 02:00:22;;;;;;;17.50;8.85;;;0.60;99.90;;;;;;5075818;28;20047;-69
2023/12/04 02:02:48;;;;;;;16.67;7.22;;;0.70;99.90;;;;;;5076204;28;20123;-68
2023/12/04 02:05:14;;;;;;;12.75;5.97;;;0.70;99.90;;;;;;5075954;28;20126;-69
2023/12/04 02:07:43;;;;;;;15.55;7.05;;;0.60;99.90;;;;;;5059273;28;20040;-70
2023/12/04 02:10:09;;;;;;;17.75;8.18;;;0.60;99.90;;;;;;5076073;28;20533;-69
2023/12/04 02:12:35;;;;;;;12.52;5.45;;;0.60;99.90;;;;;;5075699;28;20043;-69
2023/12/04 02:15:01;;;;;;;21.55;11.45;;;0.60;99.90;;;;;;5075455;28;20078;-69
2023/12/04 02:17:29;;;;;;;21.58;11.82;;;0.60;99.90;;;;;;5075774;28;20043;-69
2023/12/04 02:19:55;;;;;;;14.95;6.63;;;0.60;99.90;;;;;;5075723;28;20094;-73
2023/12/04 02:22:20;;;;;;;16.08;7.18;;;0.60;99.90;;;;;;5075829;28;20043;-73
2023/12/04 02:24:47;;;;;;;16.63;7.28;;;0.60;99.90;;;;;;5075486;28;20123;-73
2023/12/04 02:27:27;;;;;;;16.58;6.53;;;0.70;99.90;;;;;;5075364;28;20048;-73
2023/12/04 02:30:01;;;;;;;28.42;12.80;;;0.60;99.90;;;;;;5075524;28;20066;-73
2023/12/04 02:32:30;;;;;;;29.55;16.52;;;0.70;99.90;;;;;;5075321;28;20117;-73
2023/12/04 02:34:57;;;;;;;30.13;15.32;;;0.60;99.90;;;;;;5075195;28;20047;-73
2023/12/04 02:37:23;;;;;;;25.85;13.48;;;0.60;99.90;;;;;;5075357;28;20040;-73
2023/12/04 02:39:52;;;;;;;20.35;9.40;;;0.70;99.90;;;;;;5075434;28;20040;-73
2023/12/04 02:42:19;;;;;;;22.40;11.93;;;0.70;99.90;;;;;;5075065;28;20042;-73
2023/12/04 02:44:45;;;;;;;23.70;12.18;;;0.70;99.90;;;;;;5075227;28;20079;-73
2023/12/04 02:47:11;;;;;;;13.50;7.25;;;0.70;99.90;;;;;;5075332;28;20090;-72
2023/12/04 02:49:37;;;;;;;25.40;13.50;;;0.80;99.90;;;;;;5058573;28;20109;-74
2023/12/04 02:52:03;;;;;;;18.85;8.30;;;0.80;99.90;;;;;;5084883;28;20055;-74
2023/12/04 02:54:29;;;;;;;22.90;11.98;;;0.80;99.90;;;;;;5112223;28;20081;-73
2023/12/04 02:56:54;;;;;;;31.75;17.15;;;0.80;99.90;;;;;;5112508;28;20036;-73
2023/12/04 02:59:20;;;;;;;25.13;12.50;;;0.80;99.90;;;;;;5112265;28;20051;-73
2023/12/04 03:01:46;;;;;;;14.93;7.20;;;0.80;99.90;;;;;;5112080;28;20047;-73
2023/12/04 03:04:12;;;;;;;17.48;6.93;;;0.80;99.90;;;;;;5095173;28;20530;-73
2023/12/04 03:06:38;;;;;;;14.05;5.60;;;0.80;99.90;;;;;;5112020;28;20044;-73
2023/12/04 03:09:04;;;;;;;23.85;12.05;;;0.80;99.90;;;;;;5112013;28;20047;-73
2023/12/04 03:11:30;;;;;;;13.10;6.47;;;0.90;99.90;;;;;;5111969;28;20138;-72
2023/12/04 03:13:56;;;;;;;28.42;15.80;;;0.80;99.90;;;;;;5111836;28;20123;-73
2023/12/04 03:16:22;;;;;;;13.63;6.63;;;0.80;99.90;;;;;;5095236;28;20040;-73
2023/12/04 03:18:48;;;;;;;14.35;7.38;;;0.80;99.90;;;;;;5111840;28;20123;-73
2023/12/04 03:21:14;;;;;;;12.75;6.47;;;0.80;99.90;;;;;;5112094;28;20126;-73
2023/12/04 03:23:39;;;;;;;15.00;7.30;;;0.80;99.90;;;;;;5111812;28;20122;-73
2023/12/04 03:26:05;;;;;;;12.43;6.05;;;0.80;99.90;;;;;;5111659;28;20074;-73
2023/12/04 03:28:31;;;;;;;26.30;13.93;;;0.80;99.90;;;;;;5111615;28;20046;-73
2023/12/04 03:30:57;;;;;;;20.63;9.80;;;0.80;99.90;;;;;;5095189;28;20042;-73
2023/12/04 03:33:22;;;;;;;14.93;7.07;;;0.90;99.90;;;;;;5111615;28;20051;-73
2023/12/04 03:35:48;;;;;;;20.27;9.77;;;0.80;99.90;;;;;;5094971;28;20046;-73
2023/12/04 03:38:14;;;;;;;17.00;7.38;;;0.80;99.90;;;;;;5111955;28;20036;-69
2023/12/04 03:40:39;;;;;;;16.90;9.25;;;0.80;99.90;;;;;;5111702;28;20078;-69
2023/12/04 03:43:05;;;;;;;19.17;9.07;;;0.80;99.90;;;;;;5111653;28;20055;-69
2023/12/04 03:45:31;;;;;;;28.90;17.17;;;0.80;99.90;;;;;;5111556;28;20071;-69
2023/12/04 03:47:57;;;;;;;21.92;10.65;;;0.80;99.90;;;;;;5111645;28;20055;-69
2023/12/04 03:50:22;;;;;;;26.17;13.98;;;0.80;99.90;;;;;;5111526;28;20116;-69
2023/12/04 03:52:48;;;;;;;14.82;7.20;;;0.80;99.90;;;;;;5111337;28;20059;-69
2023/12/04 03:55:14;;;;;;;21.33;10.32;;;0.80;99.90;;;;;;5111441;28;20039;-69
2023/12/04 03:57:40;;;;;;;24.25;11.70;;;0.80;99.90;;;;;;5111883;28;20061;-69
2023/12/04 04:00:06;;;;;;;26.05;15.30;;;0.80;99.90;;;;;;5078122;28;20042;-73
2023/12/04 04:02:32;;;;;;;24.80;10.27;;;0.80;99.90;;;;;;5115519;28;20046;-72
2023/12/04 04:04:57;;;;;;;20.10;10.38;;;0.80;99.90;;;;;;5098798;28;20035;-73
2023/12/04 04:07:23;;;;;;;19.77;9.80;;;0.80;99.90;;;;;;5115328;28;20086;-73
2023/12/04 04:09:49;;;;;;;19.77;9.63;;;0.70;99.90;;;;;;5115523;28;20036;-73
2023/12/04 04:12:14;;;;;;;13.80;5.97;;;0.80;99.90;;;;;;5098425;28;20126;-73
2023/12/04 04:14:40;;;;;;;33.00;19.48;;;0.70;99.90;;;;;;5098517;28;20045;-72
2023/12/04 04:17:06;;;;;;;31.27;17.85;;;0.70;99.90;;;;;;5115388;28;20042;-73
2023/12/04 04:19:32;;;;;;;33.78;18.17;;;0.70;99.90;;;;;;5098332;28;20032;-73
2023/12/04 04:21:57;;;;;;;25.30;11.88;;;0.70;99.90;;;;;;5115191;28;20043;-73
2023/12/04 04:24:23;;;;;;;24.88;12.50;;;0.70;99.90;;;;;;5115188;28;20040;-73
2023/12/04 04:26:49;;;;;;;30.45;15.80;;;0.80;99.90;;;;;;5115361;28;20127;-73
2023/12/04 04:29:15;;;;;;;24.45;9.50;;;0.80;99.90;;;;;;5115007;28;20048;-73
2023/12/04 04:31:40;;;;;;;36.35;21.90;;;0.80;99.90;;;;;;5115407;28;20044;-73
2023/12/04 04:34:06;;;;;;;33.83;18.50;;;0.80;99.90;;;;;;5115050;28;20044;-73
2023/12/04 04:36:32;;;;;;;19.88;8.52;;;0.80;99.90;;;;;;5098006;28;20039;-73
2023/12/04 04:38:57;;;;;;;28.30;15.35;;;0.80;99.90;;;;;;5114947;28;20407;-73
2023/12/04 04:41:23;;;;;;;26.15;13.55;;;0.80;99.90;;;;;;5097660;28;20063;-72
2023/12/04 04:43:49;;;;;;;24.65;10.80;;;0.80;99.90;;;;;;5097680;28;20036;-72
2023/12/04 04:46:15;;;;;;;24.15;11.93;;;0.90;99.90;;;;;;5115057;28;20597;-73
2023/12/04 04:48:41;;;;;;;17.98;9.23;;;0.80;99.90;;;;;;5115021;28;20036;-73
2023/12/04 04:51:07;;;;;;;16.60;7.50;;;0.80;99.90;;;;;;5097630;28;20058;-73
2023/12/04 04:53:32;;;;;;;22.85;11.02;;;0.80;99.90;;;;;;5114362;28;20135;-73
2023/12/04 04:55:59;;;;;;;13.82;7.03;;;0.80;99.90;;;;;;5114853;28;20403;-72
2023/12/04 04:58:25;;;;;;;19.27;9.57;;;0.90;99.90;;;;;;5114320;28;20096;-73
2023/12/04 05:00:51;;;;;;;16.70;7.20;;;0.90;99.90;;;;;;5114613;28;20031;-73
2023/12/04 05:03:16;;;;;;;14.55;6.43;;;0.90;99.90;;;;;;5114314;28;20503;-73
2023/12/04 05:05:42;;;;;;;20.40;11.70;;;0.80;99.90;;;;;;5114280;28;20038;-73
2023/12/04 05:08:08;;;;;;;24.27;11.57;;;0.90;99.90;;;;;;5114243;28;20043;-73
2023/12/04 05:10:34;;;;;;;9.35;5.38;;;0.90;99.90;;;;;;5097076;28;20432;-73
2023/12/04 05:12:59;;;;;;;13.40;6.28;;;0.90;99.90;;;;;;5112863;28;20044;-73
2023/12/04 05:15:25;;;;;;;13.85;5.93;;;0.90;99.90;;;;;;5114045;28;20035;-73
2023/12/04 05:17:51;;;;;;;12.43;6.13;;;0.90;99.90;;;;;;5097264;28;20487;-73
2023/12/04 05:20:17;;;;;;;21.17;10.82;;;0.90;99.90;;;;;;5115339;28;20050;-72
2023/12/04 05:22:43;;;;;;;9.90;5.63;;;0.90;99.90;;;;;;5114050;28;20078;-73
2023/12/04 05:25:09;;;;;;;15.48;6.93;;;0.90;99.90;;;;;;5113903;28;20078;-73
2023/12/04 05:27:34;;;;;;;14.52;7.18;;;0.90;99.90;;;;;;5097352;28;20043;-73
2023/12/04 05:30:00;;;;;;;11.90;5.85;;;0.90;99.90;;;;;;5113847;28;20078;-73
2023/12/04 05:32:26;;;;;;;13.15;6.03;;;0.90;99.90;;;;;;5080240;28;20107;-73
2023/12/04 05:34:52;;;;;;;16.40;8.23;;;0.90;99.90;;;;;;5113753;28;20039;-73
2023/12/04 05:37:17;;;;;;;16.35;8.63;;;0.90;99.90;;;;;;5096748;28;20039;-73
2023/12/04 05:39:43;;;;;;;14.48;6.53;;;0.90;99.90;;;;;;5113732;28;20035;-72
2023/12/04 05:42:09;;;;;;;15.18;6.07;;;0.90;99.90;;;;;;5113611;28;20119;-72
2023/12/04 05:44:34;;;;;;;14.73;6.82;;;0.90;99.90;;;;;;5113939;28;20055;-73
2023/12/04 05:47:00;;;;;;;21.52;10.93;;;0.90;99.90;;;;;;5113603;28;20044;-73
2023/12/04 05:49:26;;;;;;;15.05;7.80;;;0.90;99.90;;;;;;5113653;28;20483;-74
2023/12/04 05:51:52;;;;;;;20.52;11.88;;;1.00;99.90;;;;;;5113487;28;20050;-73
2023/12/04 05:54:18;;;;;;;14.20;6.97;;;0.90;99.90;;;;;;5096408;28;20097;-73
2023/12/04 05:56:43;;;;;;;14.60;7.55;;;1.00;99.90;;;;;;5113199;28;20509;-73
2023/12/04 05:59:09;;;;;;;20.70;12.45;;;1.00;99.90;;;;;;5113753;28;20083;-70
2023/12/04 06:01:35;;;;;;;10.90;5.28;;;1.00;99.90;;;;;;5113115;28;20122;-69
2023/12/04 06:04:01;;;;;;;24.73;12.30;;;1.00;99.90;;;;;;5096639;28;20134;-69
2023/12/04 06:06:27;;;;;;;12.52;6.40;;;1.00;99.90;;;;;;5113130;28;20048;-69
2023/12/04 06:08:52;;;;;;;9.88;5.65;;;1.00;99.90;;;;;;5079454;28;20096;-69
2023/12/04 06:11:18;;;;;;;16.10;7.00;;;1.10;99.90;;;;;;5112887;28;20047;-69
2023/12/04 06:13:44;;;;;;;18.20;8.90;;;1.00;99.90;;;;;;5113245;28;20039;-69
2023/12/04 06:16:10;;;;;;;11.25;5.75;;;1.10;99.90;;;;;;5095844;28;20126;-69
2023/12/04 06:18:36;;;;;;;20.52;11.10;;;1.20;99.90;;;;;;5113143;28;20035;-69
2023/12/04 06:21:02;;;;;;;11.88;5.45;;;1.00;99.90;;;;;;5095643;28;20039;-69
2023/12/04 06:23:27;;;;;;;12.68;5.70;;;1.00;99.90;;;;;;5112407;28;20040;-70
2023/12/04 06:25:53;;;;;;;11.30;4.80;;;1.10;99.90;;;;;;5112957;28;20119;-70
2023/12/04 06:28:19;;;;;;;20.65;9.55;;;1.10;99.90;;;;;;5112892;28;20477;-70
2023/12/04 06:30:45;;;;;;;22.98;12.77;;;1.10;99.90;;;;;;5112614;28;20130;-70
2023/12/04 06:33:14;;;;;;;15.48;7.85;;;1.10;99.90;;;;;;5112519;28;20047;-70
2023/12/04 06:35:41;;;;;;;14.13;6.10;;;1.10;99.90;;;;;;5095475;28;20088;-70
2023/12/04 06:38:07;;;;;;;12.25;5.88;;;1.10;99.90;;;;;;5112493;28;20040;-70
2023/12/04 06:40:34;;;;;;;17.08;8.50;;;1.10;99.90;;;;;;5112515;28;20119;-70
2023/12/04 06:43:00;;;;;;;19.35;9.68;;;1.10;99.90;;;;;;5112625;28;20044;-70
2023/12/04 06:45:27;;;;;;;17.40;9.15;;;1.10;99.90;;;;;;5112353;28;20039;-70
2023/12/04 06:47:54;;;;;;;14.95;6.43;;;1.10;99.90;;;;;;5112692;28;20043;-70
2023/12/04 06:50:20;;;;;;;19.52;8.70;;;1.10;99.90;;;;;;5112740;28;20043;-70
2023/12/04 06:52:45;;;;;;;18.73;9.07;;;1.10;99.90;;;;;;5095299;28;20081;-70
2023/12/04 06:55:12;;;;;;;10.40;5.05;;;1.00;99.90;;;;;;5112170;28;20131;-70
2023/12/04 06:57:38;;;;;;;12.68;5.13;;;1.00;99.90;;;;;;5095247;28;20036;-69
2023/12/04 07:00:06;;;;;;;11.63;5.07;;;1.00;99.90;;;;;;5095556;28;20050;-69
2023/12/04 07:02:32;;;;;;;13.57;7.57;;;1.00;99.90;;;;;;5112099;28;20046;-70
2023/12/04 07:04:58;;;;;;;12.65;5.63;;;1.10;99.90;;;;;;5112129;28;20044;-70
2023/12/04 07:07:23;;;;;;;14.93;8.45;;;1.00;99.90;;;;;;5095101;28;20411;-69
2023/12/04 07:09:49;;;;;;;16.92;8.80;;;1.00;99.90;;;;;;5111944;28;20050;-73
2023/12/04 07:12:15;;;;;;;16.13;7.32;;;1.10;99.90;;;;;;5095177;28;20047;-73
2023/12/04 07:14:41;;;;;;;18.42;9.10;;;1.10;99.90;;;;;;5112468;28;20051;-73
2023/12/04 07:17:07;;;;;;;12.45;5.47;;;1.10;99.90;;;;;;5112182;28;20086;-74
2023/12/04 07:19:33;;;;;;;16.98;7.72;;;1.00;99.90;;;;;;5111690;28;20075;-73
2023/12/04 07:21:59;;;;;;;9.50;3.97;;;1.00;99.90;;;;;;5094853;28;20104;-74
2023/12/04 07:24:26;;;;;;;11.93;6.30;;;1.00;99.90;;;;;;5111725;28;20550;-73
2023/12/04 07:26:52;;;;;;;16.85;8.40;;;1.00;99.90;;;;;;5112015;28;20507;-73
2023/12/04 07:29:18;;;;;;;8.15;4.20;;;1.00;99.90;;;;;;5094932;28;20054;-73
2023/12/04 07:31:43;;;;;;;20.20;11.70;;;1.00;99.90;;;;;;5112011;28;20501;-73
2023/12/04 07:34:09;;;;;;;17.27;9.93;;;1.40;99.90;;;;;;5111663;28;20040;-73
2023/12/04 07:36:35;;;;;;;14.73;8.00;;;1.00;99.90;;;;;;5097336;28;20040;-73
2023/12/04 07:39:01;;;;;;;15.73;7.78;;;1.00;99.90;;;;;;5098963;28;20047;-74
2023/12/04 07:41:26;;;;;;;9.23;4.93;;;1.00;99.90;;;;;;5116266;28;20126;-74
2023/12/04 07:43:52;;;;;;;13.88;7.25;;;1.00;99.90;;;;;;5115834;28;20077;-75
2023/12/04 07:46:18;;;;;;;14.73;8.55;;;1.00;99.90;;;;;;5115757;28;20050;-73
2023/12/04 07:48:45;;;;;;;7.82;3.22;;;1.00;99.90;;;;;;5115699;28;20169;-73
2023/12/04 07:51:11;;;;;;;17.90;10.45;;;1.00;99.90;;;;;;5115843;28;20256;-73
2023/12/04 07:53:36;;;;;;;18.73;11.10;;;1.00;99.90;;;;;;5115049;28;20155;-73
2023/12/04 07:56:05;;;;;;;14.00;6.97;;;1.00;99.90;;;;;;5115702;28;20066;-73
2023/12/04 07:58:31;;;;;;;13.38;7.20;;;1.00;99.90;;;;;;5098781;28;20092;-73
2023/12/04 08:00:57;;;;;;;15.68;8.38;;;1.00;99.90;;;;;;5115688;28;20534;-73
2023/12/04 08:03:23;;;;;;;13.13;6.43;;;1.10;99.90;;;;;;5098760;28;20118;-73
2023/12/04 08:05:50;;;;;;;18.38;11.00;;;1.10;99.90;;;;;;5115626;28;20169;-73
2023/12/04 08:08:16;;;;;;;11.85;5.85;;;1.00;99.90;;;;;;5115597;28;20040;-70
2023/12/04 08:10:42;;;;;;;9.57;4.35;;;1.10;99.90;;;;;;5115727;28;20518;-70
2023/12/04 08:13:08;;;;;;;17.30;10.10;;;1.10;99.90;;;;;;5098208;28;20039;-70
2023/12/04 08:15:33;;;;;;;15.65;8.20;;;1.10;99.90;;;;;;5081491;28;20064;-70
2023/12/04 08:18:02;;;;;;;7.93;3.42;;;1.20;99.90;;;;;;5098262;28;20047;-70
2023/12/04 08:20:28;;;;;;;14.45;7.25;;;1.40;99.90;;;;;;5115216;28;20062;-73
2023/12/04 08:22:54;;;;;;;6.45;2.95;;;1.10;99.90;;;;;;5098269;28;20032;-74
2023/12/04 08:25:20;;;;;;;14.77;6.68;;;1.10;99.90;;;;;;5115399;28;20445;-73
2023/12/04 08:27:47;;;;;;;11.55;5.25;;;1.20;99.90;;;;;;5098127;28;20035;-73
2023/12/04 08:30:13;;;;;;;14.73;7.97;;;1.20;99.90;;;;;;5115040;28;20046;-73
2023/12/04 08:32:39;;;;;;;12.48;6.63;;;1.20;99.90;;;;;;5115306;28;20047;-73
2023/12/04 08:35:06;;;;;;;15.43;7.43;;;1.20;99.90;;;;;;5115061;28;20043;-74
2023/12/04 08:37:31;;;;;;;7.63;4.10;;;1.20;99.90;;;;;;5098016;28;20073;-74
2023/12/04 08:39:57;;;;;;;13.55;7.05;;;1.20;99.90;;;;;;5097814;28;20487;-73
2023/12/04 08:42:23;;;;;;;11.23;6.03;;;1.20;99.90;;;;;;5098190;28;20126;-73
2023/12/04 08:44:49;;;;;;;13.60;7.20;;;1.30;99.90;;;;;;5098120;28;20043;-73
2023/12/04 08:47:14;;;;;;;11.88;6.97;;;1.20;99.90;;;;;;5114508;28;20054;-73
2023/12/04 08:49:41;;;;;;;12.07;6.32;;;1.30;99.90;;;;;;5114984;28;20126;-74
2023/12/04 08:52:07;;;;;;;10.85;6.07;;;1.30;99.90;;;;;;5097693;28;20097;-73
2023/12/04 08:54:33;;;;;;;14.27;6.93;;;1.30;99.90;;;;;;5114309;28;20075;-74
2023/12/04 08:56:59;;;;;;;8.48;3.85;;;1.30;99.90;;;;;;5114606;28;20039;-73
2023/12/04 08:59:26;;;;;;;10.02;4.60;;;1.30;99.90;;;;;;5114602;28;20510;-73
2023/12/04 09:01:52;;;;;;;15.20;7.47;;;1.40;99.90;;;;;;5114521;28;20047;-73
2023/12/04 09:04:17;;;;;;;10.98;5.60;;;1.40;99.90;;;;;;5097478;28;20044;-73
2023/12/04 09:06:43;;;;;;;10.77;5.38;;;1.40;99.90;;;;;;5097813;28;20093;-74
2023/12/04 09:09:09;;;;;;;12.88;6.68;;;1.40;99.90;;;;;;5097444;28;20035;-73
2023/12/04 09:11:34;;;;;;;11.93;6.38;;;1.50;99.90;;;;;;5114229;28;20044;-73
2023/12/04 09:14:00;;;;;;;11.60;6.53;;;1.50;99.90;;;;;;5114260;28;20150;-73
2023/12/04 09:16:26;;;;;;;11.27;5.82;;;1.50;99.90;;;;;;5114184;28;20461;-73
2023/12/04 09:18:53;;;;;;;10.00;4.80;;;1.50;99.90;;;;;;5113923;28;20040;-73
2023/12/04 09:21:19;;;;;;;10.43;5.38;;;1.60;99.90;;;;;;5114273;28;20039;-73
2023/12/04 09:23:49;;;;;;;11.25;6.30;;;1.60;99.90;;;;;;5114039;28;20099;-73
2023/12/04 09:26:16;;;;;;;10.65;4.53;;;1.70;99.90;;;;;;5114004;28;20066;-73
2023/12/04 09:28:42;;;;;;;6.90;3.35;;;1.70;99.90;;;;;;5114036;28;20128;-73
2023/12/04 09:31:09;;;;;;;8.77;4.43;;;1.80;99.90;;;;;;5097385;28;20074;-74
2023/12/04 09:33:35;;;;;;;6.30;2.70;;;1.80;99.90;;;;;;5113481;28;20043;-74
2023/12/04 09:36:02;;;;;;;8.52;3.67;;;1.80;99.90;;;;;;5113796;28;20050;-74
2023/12/04 09:38:29;;;;;;;10.70;6.10;;;1.90;99.90;;;;;;5096772;28;20144;-74
2023/12/04 09:41:01;;;;;;;7.78;3.25;;;1.90;99.90;;;;;;5097078;28;20031;-74
2023/12/04 09:43:32;;;;;;;8.82;3.67;;;1.90;99.90;;;;;;5080118;28;20040;-73
2023/12/04 09:45:58;;;;;;;10.00;4.57;;;1.90;99.90;;;;;;5079703;28;20031;-74
2023/12/04 09:48:26;;;;;;;9.20;5.03;;;2.00;99.90;;;;;;5096609;28;20036;-73
2023/12/04 09:50:53;;;;;;;9.93;4.35;;;1.90;99.90;;;;;;5096897;28;20075;-73
2023/12/04 09:53:19;;;;;;;9.30;4.00;;;2.00;99.90;;;;;;5096354;28;20059;-74
2023/12/04 09:55:49;;;;;;;9.30;5.30;;;2.00;99.90;;;;;;5096390;28;20097;-74
2023/12/04 09:58:15;;;;;;;7.95;3.03;;;2.00;99.90;;;;;;5095862;28;20088;-73
2023/12/04 10:00:43;;;;;;;7.20;3.33;;;2.00;99.90;;;;;;5079519;28;20036;-73
2023/12/04 10:03:09;;;;;;;9.98;4.75;;;1.90;99.90;;;;;;5096412;28;20074;-74
2023/12/04 10:05:34;;;;;;;8.13;4.15;;;2.00;99.90;;;;;;5079286;28;20082;-74
2023/12/04 10:08:00;;;;;;;8.75;4.40;;;2.00;99.90;;;;;;5096140;28;20046;-73
2023/12/04 10:10:26;;;;;;;12.00;6.40;;;2.00;99.90;;;;;;5096227;28;20039;-73
2023/12/04 10:12:52;;;;;;;8.35;4.53;;;2.00;99.90;;;;;;5096419;28;20035;-74
2023/12/04 10:15:17;;;;;;;12.27;5.72;;;2.00;99.90;;;;;;5095933;28;20073;-74
2023/12/04 10:17:43;;;;;;;10.88;6.05;;;2.00;99.90;;;;;;5096024;28;20130;-74
2023/12/04 10:20:17;;;;;;;11.02;6.22;;;2.10;99.90;;;;;;5095901;28;20046;-73
2023/12/04 10:22:56;;;;;;;10.02;5.45;;;2.10;99.90;;;;;;5080139;28;20096;-73
2023/12/04 10:25:28;;;;;;;8.15;4.05;;;2.20;99.90;;;;;;5095843;28;20120;-74
2023/12/04 10:27:54;;;;;;;12.05;6.13;;;2.20;99.90;;;;;;5095680;28;20039;-74
2023/12/04 10:30:28;;;;;;;12.70;6.85;;;2.30;99.90;;;;;;5095643;28;20047;-74
2023/12/04 10:32:56;;;;;;;11.15;5.82;;;2.30;99.90;;;;;;5096088;28;20126;-73
2023/12/04 10:35:22;;;;;;;11.35;6.75;;;2.30;99.90;;;;;;5095757;28;20043;-74
2023/12/04 10:37:53;;;;;;;12.00;6.47;;;2.50;99.90;;;;;;5096010;28;20071;-73
2023/12/04 10:40:26;;;;;;;11.65;7.00;;;2.40;99.90;;;;;;5079066;28;20387;-73
2023/12/04 10:43:17;;;;;;;11.00;5.85;;;2.40;99.90;;;;;;5079110;28;20036;-73
2023/12/04 10:45:45;;;;;;;9.82;5.13;;;2.40;99.90;;;;;;5095793;28;20430;-74
2023/12/04 10:48:12;;;;;;;9.57;4.65;;;2.40;99.90;;;;;;5095504;28;20053;-75
2023/12/04 10:50:39;;;;;;;12.52;6.75;;;2.40;99.90;;;;;;5095369;28;20049;-73
2023/12/04 10:53:06;;;;;;;9.52;5.35;;;2.40;99.90;;;;;;5080216;28;20082;-73
2023/12/04 10:55:32;;;;;;;11.95;6.47;;;2.40;99.90;;;;;;5075167;28;20114;-73
2023/12/04 10:58:01;;;;;;;10.35;6.45;;;2.40;99.90;;;;;;5058965;28;20446;-73
2023/12/04 11:00:30;;;;;;;11.60;6.78;;;2.50;99.90;;;;;;5075140;28;20036;-74
2023/12/04 11:02:59;;;;;;;10.18;5.72;;;2.40;99.90;;;;;;5075572;28;20454;-74
2023/12/04 11:05:25;;;;;;;13.20;7.07;;;2.40;99.90;;;;;;5075333;28;20040;-74
2023/12/04 11:07:54;;;;;;;8.60;4.78;;;2.50;99.90;;;;;;5075361;28;20048;-74
2023/12/04 11:10:26;;;;;;;9.93;5.53;;;2.50;99.90;;;;;;5075360;28;20100;-74
2023/12/04 11:13:03;;;;;;;9.50;4.00;;;2.50;99.90;;;;;;5058593;28;20039;-73
2023/12/04 11:15:31;;;;;;;11.50;6.90;;;2.40;99.90;;;;;;5058807;28;20043;-74
2023/12/04 11:18:03;;;;;;;11.20;6.85;;;2.40;99.90;;;;;;5075340;28;20036;-74
2023/12/04 11:20:36;;;;;;;10.77;5.50;;;2.40;99.90;;;;;;5075205;28;20036;-74
2023/12/04 11:23:06;;;;;;;11.60;7.25;;;2.30;99.90;;;;;;5075277;28;20270;-74
2023/12/04 11:25:34;;;;;;;10.27;5.60;;;2.30;99.90;;;;;;5075347;28;20396;-74
2023/12/04 11:28:02;;;;;;;10.75;6.25;;;2.30;99.90;;;;;;5093512;28;20043;-70
2023/12/04 11:30:29;;;;;;;10.85;6.55;;;2.40;99.90;;;;;;5074650;28;20039;-73
2023/12/04 11:32:58;;;;;;;12.02;7.38;;;2.30;99.90;;;;;;5075027;28;20075;-74
2023/12/04 11:35:28;;;;;;;11.63;6.75;;;2.30;99.90;;;;;;5074952;28;20133;-73
2023/12/04 11:37:53;;;;;;;11.13;6.30;;;2.30;99.90;;;;;;5074829;28;20036;-74
2023/12/04 11:40:19;;;;;;;11.20;7.25;;;2.30;99.90;;;;;;5074936;28;20040;-74
2023/12/04 11:42:45;;;;;;;12.55;6.25;;;2.30;99.90;;;;;;5074668;28;20040;-74
2023/12/04 11:45:19;;;;;;;10.05;6.15;;;2.40;99.90;;;;;;5058107;28;20040;-73
2023/12/04 11:47:56;;;;;;;10.23;6.55;;;2.40;99.90;;;;;;5074634;28;20051;-74
2023/12/04 11:50:24;;;;;;;13.75;7.60;;;2.40;99.90;;;;;;5074549;28;20056;-70
2023/12/04 11:52:50;;;;;;;11.40;6.00;;;2.40;99.90;;;;;;5097572;28;20491;-71
2023/12/04 11:55:25;;;;;;;12.10;5.35;;;2.70;99.90;;;;;;5111794;28;20122;-70
2023/12/04 11:57:54;;;;;;;7.60;3.97;;;2.50;99.90;;;;;;5113224;28;20036;-70
2023/12/04 12:00:22;;;;;;;9.18;5.30;;;2.50;99.90;;;;;;5111483;28;20070;-71
2023/12/04 12:02:54;;;;;;;12.60;6.43;;;2.50;99.90;;;;;;5094725;28;20093;-71
2023/12/04 12:05:21;;;;;;;10.45;6.38;;;2.50;99.90;;;;;;5111993;28;20392;-70
2023/12/04 12:07:47;;;;;;;12.32;7.10;;;2.50;99.90;;;;;;5111631;28;20152;-70
2023/12/04 12:10:13;;;;;;;8.40;4.32;;;2.50;99.90;;;;;;5111799;28;20487;-70
2023/12/04 12:12:43;;;;;;;8.05;3.95;;;2.70;99.90;;;;;;5111495;28;20050;-70
2023/12/04 12:15:09;;;;;;;9.57;5.22;;;2.50;99.90;;;;;;5111382;28;20122;-70
2023/12/04 12:17:37;;;;;;;10.45;6.35;;;2.50;99.90;;;;;;5111450;28;20036;-71
2023/12/04 12:20:06;;;;;;;10.65;6.55;;;2.50;99.90;;;;;;5094543;28;20043;-71
2023/12/04 12:22:34;;;;;;;12.35;6.90;;;2.50;99.90;;;;;;5113868;28;20126;-71
2023/12/04 12:25:00;;;;;;;11.60;6.88;;;2.50;99.90;;;;;;5115268;28;20078;-71
2023/12/04 12:27:26;;;;;;;9.38;4.95;;;2.60;99.90;;;;;;5115576;28;20040;-70
2023/12/04 12:29:51;;;;;;;11.52;5.78;;;2.50;99.90;;;;;;5098319;28;20043;-71
2023/12/04 12:32:17;;;;;;;10.00;5.75;;;2.60;99.90;;;;;;5115108;28;20036;-71
2023/12/04 12:34:43;;;;;;;10.65;5.80;;;2.60;99.90;;;;;;5115007;28;20093;-71
2023/12/04 12:37:09;;;;;;;9.07;4.55;;;2.60;99.90;;;;;;5115027;28;20122;-70
2023/12/04 12:39:35;;;;;;;11.75;7.15;;;2.60;99.90;;;;;;5114807;28;20560;-71
2023/12/04 12:42:04;;;;;;;8.32;4.47;;;2.60;99.90;;;;;;5098369;28;20067;-71